createdAt,value
2022-12-04T00:01:15.672Z,1.40
2022-12-04T00:03:42.830Z,1.40
2022-12-04T00:06:12.613Z,1.50
2022-12-04T00:08:40.235Z,1.40
2022-12-04T00:11:10.420Z,1.40
2022-12-04T00:13:38.372Z,1.40
2022-12-04T00:16:07.281Z,1.50
2022-12-04T00:18:34.928Z,1.50
2022-12-04T00:21:07.216Z,1.50
2022-12-04T00:23:35.263Z,1.50
2022-12-04T00:26:04.852Z,1.50
2022-12-04T00:28:32.230Z,1.50
2022-12-04T00:30:59.178Z,1.50
2022-12-04T00:33:26.610Z,1.50
2022-12-04T00:36:01.489Z,1.50
2022-12-04T00:38:29.157Z,1.40
2022-12-04T00:40:56.366Z,1.50
2022-12-04T00:43:24.230Z,1.50
2022-12-04T00:45:51.364Z,1.40
2022-12-04T00:48:21.406Z,1.50
2022-12-04T00:50:48.331Z,1.50
2022-12-04T00:53:15.301Z,1.50
2022-12-04T00:55:44.303Z,1.50
2022-12-04T00:58:12.130Z,1.50
2022-12-04T01:00:43.343Z,1.40
2022-12-04T01:03:10.547Z,1.50
2022-12-04T01:05:45.159Z,1.50
2022-12-04T01:08:13.353Z,1.50
2022-12-04T01:10:42.261Z,1.50
2022-12-04T01:13:09.546Z,1.50
2022-12-04T01:15:41.740Z,1.60
2022-12-04T01:18:08.967Z,1.50
2022-12-04T01:20:35.972Z,1.60
2022-12-04T01:23:03.008Z,1.60
2022-12-04T01:25:30.147Z,1.60
2022-12-04T01:27:57.089Z,1.60
2022-12-04T01:30:24.227Z,1.60
2022-12-04T01:32:51.100Z,1.50
2022-12-04T01:35:18.135Z,1.50
2022-12-04T01:37:45.077Z,1.40
2022-12-04T01:40:16.302Z,1.50
2022-12-04T01:42:43.262Z,1.50
2022-12-04T01:45:38.772Z,1.50
2022-12-04T01:48:38.325Z,1.40
2022-12-04T01:51:18.095Z,1.40
2022-12-04T01:53:51.241Z,1.40
2022-12-04T01:56:22.354Z,1.50
2022-12-04T01:58:52.727Z,1.50
2022-12-04T02:01:19.771Z,1.50
2022-12-04T02:03:46.860Z,1.50
2022-12-04T02:06:13.710Z,1.50
2022-12-04T02:08:41.087Z,1.40
2022-12-04T02:11:31.214Z,1.50
2022-12-04T02:14:14.976Z,1.50
2022-12-04T02:17:03.153Z,1.50
2022-12-04T02:19:53.775Z,1.40
2022-12-04T02:22:29.708Z,1.50
2022-12-04T02:25:07.061Z,1.40
2022-12-04T02:27:40.037Z,1.40
2022-12-04T02:30:10.225Z,1.50
2022-12-04T02:32:45.241Z,1.50
2022-12-04T02:35:16.856Z,1.50
2022-12-04T02:37:47.758Z,1.50
2022-12-04T02:40:29.379Z,1.40
2022-12-04T02:43:05.473Z,1.40
2022-12-04T02:45:46.849Z,1.40
2022-12-04T02:48:18.631Z,1.40
2022-12-04T02:50:49.610Z,1.40
2022-12-04T02:53:24.279Z,1.30
2022-12-04T02:55:58.961Z,1.30
2022-12-04T02:58:37.702Z,1.50
2022-12-04T03:01:19.653Z,1.50
2022-12-04T03:03:49.832Z,1.40
2022-12-04T03:06:18.915Z,1.30
2022-12-04T03:08:51.745Z,1.40
2022-12-04T03:11:18.772Z,1.40
2022-12-04T03:13:55.944Z,1.40
2022-12-04T03:16:27.282Z,1.40
2022-12-04T03:19:02.431Z,1.40
2022-12-04T03:21:33.378Z,1.40
2022-12-04T03:24:08.998Z,1.40
2022-12-04T03:26:38.960Z,1.40
2022-12-04T03:29:32.601Z,1.40
2022-12-04T03:32:18.536Z,1.40
2022-12-04T03:35:10.372Z,1.50
2022-12-04T03:38:08.114Z,1.50
2022-12-04T03:40:37.301Z,1.50
2022-12-04T03:43:28.268Z,1.40
2022-12-04T03:46:08.231Z,1.50
2022-12-04T03:48:56.289Z,1.40
2022-12-04T03:51:42.171Z,1.40
2022-12-04T03:54:24.073Z,1.30
2022-12-04T03:56:58.589Z,1.30
2022-12-04T03:59:34.978Z,1.30
2022-12-04T04:02:04.775Z,1.40
2022-12-04T04:04:36.000Z,1.40
2022-12-04T04:07:18.067Z,1.40
2022-12-04T04:09:49.521Z,1.40
2022-12-04T04:12:25.971Z,1.40
2022-12-04T04:15:13.242Z,1.40
2022-12-04T04:18:08.113Z,1.40
2022-12-04T04:21:15.913Z,1.30
2022-12-04T04:24:08.814Z,1.30
2022-12-04T04:26:43.953Z,1.30
2022-12-04T04:29:11.720Z,1.40
2022-12-04T04:31:46.324Z,1.40
2022-12-04T04:34:18.453Z,1.40
2022-12-04T04:36:57.521Z,1.30
2022-12-04T04:39:35.238Z,1.30
2022-12-04T04:42:26.706Z,1.30
2022-12-04T04:45:29.466Z,1.30
2022-12-04T04:48:16.640Z,1.30
2022-12-04T04:50:45.681Z,1.30
2022-12-04T04:53:17.855Z,1.30
2022-12-04T04:55:45.554Z,1.30
2022-12-04T04:58:18.557Z,1.40
2022-12-04T05:00:56.306Z,1.30
2022-12-04T05:03:23.417Z,1.30
2022-12-04T05:05:50.294Z,1.30
2022-12-04T05:08:17.525Z,1.40
2022-12-04T05:10:44.459Z,1.40
2022-12-04T05:13:15.048Z,1.40
2022-12-04T05:15:42.781Z,1.30
2022-12-04T05:18:10.648Z,1.30
2022-12-04T05:20:41.342Z,1.30
2022-12-04T05:23:08.292Z,1.40
2022-12-04T05:25:35.197Z,1.40
2022-12-04T05:28:02.222Z,1.40
2022-12-04T05:30:29.120Z,1.40
2022-12-04T05:32:56.023Z,1.40
2022-12-04T05:35:23.114Z,1.40
2022-12-04T05:37:50.109Z,1.40
2022-12-04T05:40:17.133Z,1.40
2022-12-04T05:42:44.079Z,1.40
2022-12-04T05:45:11.208Z,1.40
2022-12-04T05:47:42.623Z,1.40
2022-12-04T05:50:11.284Z,1.40
2022-12-04T05:52:38.514Z,1.30
2022-12-04T05:55:07.037Z,1.50
2022-12-04T05:57:34.163Z,1.40
2022-12-04T06:00:01.185Z,1.50
2022-12-04T06:02:28.250Z,1.40
2022-12-04T06:04:55.154Z,1.40
2022-12-04T06:07:24.661Z,1.50
2022-12-04T06:09:51.537Z,1.40
2022-12-04T06:12:18.483Z,1.40
2022-12-04T06:14:45.375Z,1.40
2022-12-04T06:17:12.389Z,1.50
2022-12-04T06:19:39.743Z,1.40
2022-12-04T06:22:06.694Z,1.50
2022-12-04T06:27:29.063Z,1.40
2022-12-04T06:29:56.616Z,1.40
2022-12-04T06:32:23.959Z,1.50
2022-12-04T06:34:57.773Z,1.50
2022-12-04T06:37:27.446Z,1.50
2022-12-04T06:39:55.871Z,1.50
2022-12-04T06:42:23.496Z,1.50
2022-12-04T06:44:56.085Z,1.50
2022-12-04T06:47:41.598Z,1.50
2022-12-04T06:50:08.990Z,1.50
2022-12-04T06:52:39.352Z,1.40
2022-12-04T06:55:26.630Z,1.40
2022-12-04T06:57:53.610Z,1.50
2022-12-04T07:00:20.763Z,1.40
2022-12-04T07:02:47.932Z,1.50
2022-12-04T07:05:18.537Z,1.50
2022-12-04T07:07:56.351Z,1.50
2022-12-04T07:10:28.072Z,1.40
2022-12-04T07:12:55.035Z,1.40
2022-12-04T07:15:23.838Z,1.50
2022-12-04T07:17:53.210Z,1.50
2022-12-04T07:20:27.387Z,1.50
2022-12-04T07:22:54.364Z,1.40
2022-12-04T07:25:21.639Z,1.40
2022-12-04T07:27:48.686Z,1.40
2022-12-04T07:30:16.288Z,1.40
2022-12-04T07:32:43.612Z,1.40
2022-12-04T07:35:26.250Z,1.40
2022-12-04T07:37:54.242Z,1.40
2022-12-04T07:40:21.417Z,1.40
2022-12-04T07:42:48.463Z,1.50
2022-12-04T07:45:15.700Z,1.50
2022-12-04T07:47:42.800Z,1.50
2022-12-04T07:50:12.540Z,1.50
2022-12-04T07:52:56.944Z,1.50
2022-12-04T07:55:33.334Z,1.50
2022-12-04T07:58:33.981Z,1.50
2022-12-04T08:01:21.760Z,1.50
2022-12-04T08:03:50.676Z,1.40
2022-12-04T08:06:20.077Z,1.40
2022-12-04T08:08:49.074Z,1.50
2022-12-04T08:11:21.213Z,1.50
2022-12-04T08:13:48.989Z,1.50
2022-12-04T08:16:16.156Z,1.50
2022-12-04T08:18:47.054Z,1.50
2022-12-04T08:21:16.828Z,1.50
2022-12-04T08:23:44.462Z,1.50
2022-12-04T08:26:12.868Z,1.50
2022-12-04T08:28:41.247Z,1.50
2022-12-04T08:31:15.634Z,1.60
2022-12-04T08:33:44.239Z,1.60
2022-12-04T08:36:13.494Z,1.60
2022-12-04T08:38:40.972Z,1.60
2022-12-04T08:41:11.342Z,1.60
2022-12-04T08:43:38.818Z,1.70
2022-12-04T08:46:09.719Z,1.60
2022-12-04T08:48:37.362Z,1.70
2022-12-04T08:51:04.983Z,1.70
2022-12-04T08:53:32.420Z,1.70
2022-12-04T08:56:01.530Z,1.70
2022-12-04T08:58:28.751Z,1.70
2022-12-04T09:00:55.948Z,1.70
2022-12-04T09:03:29.146Z,1.70
2022-12-04T09:06:01.981Z,1.70
2022-12-04T09:08:29.177Z,1.80
2022-12-04T09:10:59.369Z,1.70
2022-12-04T09:13:26.441Z,1.70
2022-12-04T09:15:53.452Z,1.80
2022-12-04T09:18:20.518Z,1.80
2022-12-04T09:20:59.161Z,1.80
2022-12-04T09:23:26.553Z,1.80
2022-12-04T09:25:54.123Z,1.80
2022-12-04T09:28:21.745Z,1.80
2022-12-04T09:31:04.410Z,1.90
2022-12-04T09:33:37.982Z,2.00
2022-12-04T09:36:05.597Z,2.00
2022-12-04T09:38:32.519Z,1.90
2022-12-04T09:41:08.445Z,1.90
2022-12-04T09:43:52.103Z,2.00
2022-12-04T09:46:27.295Z,2.00
2022-12-04T09:48:57.483Z,2.00
2022-12-04T09:51:26.325Z,2.10
2022-12-04T09:54:05.224Z,2.00
2022-12-04T09:56:32.824Z,2.00
2022-12-04T09:59:16.163Z,2.10
2022-12-04T10:01:49.086Z,2.10
2022-12-04T10:04:17.786Z,2.00
2022-12-04T10:07:02.848Z,2.00
2022-12-04T10:09:43.300Z,1.90
2022-12-04T10:12:35.309Z,2.10
2022-12-04T10:15:23.554Z,2.20
2022-12-04T10:17:53.686Z,2.20
2022-12-04T10:20:55.307Z,2.20
2022-12-04T10:23:37.053Z,2.10
2022-12-04T10:26:11.524Z,2.10
2022-12-04T10:28:52.008Z,2.20
2022-12-04T10:31:22.106Z,2.20
2022-12-04T10:34:18.164Z,2.20
2022-12-04T10:36:53.164Z,2.20
2022-12-04T10:39:36.708Z,2.20
2022-12-04T10:42:12.019Z,2.20
2022-12-04T10:44:39.404Z,2.20
2022-12-04T10:47:06.877Z,2.30
2022-12-04T10:49:36.264Z,2.30
2022-12-04T10:52:04.738Z,2.20
2022-12-04T10:54:34.488Z,2.20
2022-12-04T10:57:04.829Z,2.20
2022-12-04T10:59:32.235Z,2.20
2022-12-04T11:02:10.361Z,2.10
2022-12-04T11:04:37.676Z,2.10
2022-12-04T11:07:08.269Z,2.10
2022-12-04T11:09:36.133Z,2.10
2022-12-04T11:12:18.268Z,2.10
2022-12-04T11:14:47.143Z,2.10
2022-12-04T11:17:19.342Z,2.00
2022-12-04T11:19:46.266Z,1.90
2022-12-04T11:22:17.677Z,2.00
2022-12-04T11:24:52.987Z,2.10
2022-12-04T11:27:24.215Z,2.00
2022-12-04T11:29:51.632Z,2.00
2022-12-04T11:32:25.398Z,2.10
2022-12-04T11:34:55.778Z,2.00
2022-12-04T11:37:30.485Z,2.00
2022-12-04T11:39:58.522Z,2.00
2022-12-04T11:42:30.656Z,2.00
2022-12-04T11:45:22.347Z,2.00
2022-12-04T11:47:58.720Z,2.00
2022-12-04T11:50:37.961Z,2.00
2022-12-04T11:53:25.226Z,2.00
2022-12-04T11:56:22.655Z,2.10
2022-12-04T11:59:22.169Z,2.00
2022-12-04T12:02:20.279Z,1.90
2022-12-04T12:05:05.730Z,1.90
2022-12-04T12:08:02.374Z,2.00
2022-12-04T12:10:44.942Z,2.00
2022-12-04T12:13:30.059Z,2.00
2022-12-04T12:16:24.921Z,2.00
2022-12-04T12:19:00.776Z,2.00
2022-12-04T12:21:39.483Z,2.00
2022-12-04T12:24:24.850Z,1.90
2022-12-04T12:27:22.705Z,2.00
2022-12-04T12:30:10.143Z,2.00
2022-12-04T12:32:58.899Z,2.00
2022-12-04T12:35:45.695Z,1.90
2022-12-04T12:38:28.255Z,2.00
2022-12-04T12:41:13.547Z,2.00
2022-12-04T12:43:43.068Z,1.90
2022-12-04T12:46:21.184Z,2.00
2022-12-04T12:49:18.351Z,2.00
2022-12-04T12:51:51.451Z,2.00
2022-12-04T12:54:38.100Z,1.90
2022-12-04T12:57:16.306Z,2.00
2022-12-04T12:59:50.890Z,2.00
2022-12-04T13:02:33.295Z,2.00
2022-12-04T13:05:10.396Z,2.00
2022-12-04T13:07:57.340Z,2.10
2022-12-04T13:10:38.181Z,2.00
2022-12-04T13:13:29.845Z,2.10
2022-12-04T13:16:09.233Z,2.10
2022-12-04T13:18:45.013Z,2.00
2022-12-04T13:21:36.276Z,2.10
2022-12-04T13:24:21.471Z,2.10
2022-12-04T13:27:10.711Z,2.00
2022-12-04T13:30:15.535Z,2.10
2022-12-04T13:33:10.895Z,2.00
2022-12-04T13:36:01.027Z,2.00
2022-12-04T13:38:34.058Z,2.00
2022-12-04T13:41:05.234Z,2.00
2022-12-04T13:43:41.577Z,1.90
2022-12-04T13:46:40.369Z,1.90
2022-12-04T13:49:08.956Z,1.90
2022-12-04T13:51:39.540Z,1.90
2022-12-04T13:54:12.948Z,2.00
2022-12-04T13:56:42.249Z,2.00
2022-12-04T13:59:27.356Z,2.00
2022-12-04T14:02:04.952Z,2.00
2022-12-04T14:04:46.879Z,2.00
2022-12-04T14:07:33.411Z,2.00
2022-12-04T14:10:08.071Z,2.00
2022-12-04T14:12:41.374Z,2.00
2022-12-04T14:15:27.003Z,1.90
2022-12-04T14:18:12.568Z,2.00
2022-12-04T14:20:44.455Z,2.00
2022-12-04T14:23:26.740Z,2.00
2022-12-04T14:25:58.842Z,2.00
2022-12-04T14:28:44.186Z,2.10
2022-12-04T14:31:36.267Z,2.00
2022-12-04T14:34:21.303Z,2.00
2022-12-04T14:36:51.627Z,2.00
2022-12-04T14:39:28.890Z,2.00
2022-12-04T14:42:11.937Z,2.00
2022-12-04T14:44:39.949Z,2.00
2022-12-04T14:47:20.019Z,2.10
2022-12-04T14:49:58.812Z,2.10
2022-12-04T14:52:52.312Z,2.10
2022-12-04T14:55:31.017Z,2.10
2022-12-04T14:58:34.784Z,2.10
2022-12-04T15:01:22.663Z,2.10
2022-12-04T15:03:56.500Z,2.10
2022-12-04T15:06:31.087Z,2.10
2022-12-04T15:09:19.679Z,2.10
2022-12-04T15:12:09.248Z,2.10
2022-12-04T15:14:44.547Z,2.20
2022-12-04T15:17:13.023Z,2.10
2022-12-04T15:19:40.423Z,2.10
2022-12-04T15:22:21.996Z,2.10
2022-12-04T15:24:50.129Z,2.10
2022-12-04T15:27:21.121Z,2.10
2022-12-04T15:29:51.416Z,2.10
2022-12-04T15:32:21.710Z,2.10
2022-12-04T15:34:59.181Z,2.10
2022-12-04T15:37:29.506Z,2.10
2022-12-04T15:39:58.296Z,2.20
2022-12-04T15:42:30.109Z,2.20
2022-12-04T15:45:03.845Z,2.10
2022-12-04T15:47:37.329Z,2.20
2022-12-04T15:50:16.377Z,2.10
2022-12-04T15:53:05.217Z,2.20
2022-12-04T15:55:48.470Z,2.10
2022-12-04T15:58:52.839Z,2.20
2022-12-04T16:01:20.972Z,2.20
2022-12-04T16:03:51.831Z,2.20
2022-12-04T16:06:21.594Z,2.20
2022-12-04T16:08:54.275Z,2.20
2022-12-04T16:11:21.535Z,2.20
2022-12-04T16:14:08.731Z,2.20
2022-12-04T16:16:45.469Z,2.20
2022-12-04T16:19:27.407Z,2.20
2022-12-04T16:21:55.168Z,2.20
2022-12-04T16:24:22.360Z,2.20
2022-12-04T16:26:51.510Z,2.20
2022-12-04T16:29:18.713Z,2.20
2022-12-04T16:31:45.755Z,2.20
2022-12-04T16:34:13.721Z,2.20
2022-12-04T16:36:41.651Z,2.20
2022-12-04T16:39:08.670Z,2.20
2022-12-04T16:41:35.718Z,2.20
2022-12-04T16:44:02.912Z,2.30
2022-12-04T16:46:30.557Z,2.20
2022-12-04T16:49:01.480Z,2.20
2022-12-04T16:51:31.314Z,2.20
2022-12-04T16:53:58.364Z,2.20
2022-12-04T16:56:25.329Z,2.20
2022-12-04T16:58:52.349Z,2.20
2022-12-04T17:01:24.812Z,2.20
2022-12-04T17:03:52.674Z,2.20
2022-12-04T17:06:20.044Z,2.20
2022-12-04T17:08:47.466Z,2.20
2022-12-04T17:11:16.733Z,2.20
2022-12-04T17:13:44.824Z,2.30
2022-12-04T17:16:15.054Z,2.30
2022-12-04T17:18:43.374Z,2.30
2022-12-04T17:21:12.592Z,2.30
2022-12-04T17:23:40.447Z,2.30
2022-12-04T17:26:13.102Z,2.20
2022-12-04T17:28:40.618Z,2.20
2022-12-04T17:31:15.414Z,2.30
2022-12-04T17:33:43.443Z,2.30
2022-12-04T17:36:12.261Z,2.30
2022-12-04T17:38:40.849Z,2.30
2022-12-04T17:41:09.274Z,2.30
2022-12-04T17:43:36.949Z,2.30
2022-12-04T17:46:10.352Z,2.40
2022-12-04T17:48:37.818Z,2.40
2022-12-04T17:51:17.590Z,2.30
2022-12-04T17:53:47.092Z,2.40
2022-12-04T17:56:17.490Z,2.30
2022-12-04T17:58:45.559Z,2.40
2022-12-04T18:01:18.840Z,2.40
2022-12-04T18:03:53.638Z,2.40
2022-12-04T18:06:32.277Z,2.30
2022-12-04T18:08:59.600Z,2.30
2022-12-04T18:11:29.616Z,2.40
2022-12-04T18:14:00.552Z,2.40
2022-12-04T18:16:29.635Z,2.40
2022-12-04T18:18:58.354Z,2.40
2022-12-04T18:21:25.640Z,2.30
2022-12-04T18:23:55.710Z,2.30
2022-12-04T18:26:24.193Z,2.40
2022-12-04T18:28:54.117Z,2.30
2022-12-04T18:31:21.986Z,2.30
2022-12-04T18:33:49.116Z,2.30
2022-12-04T18:36:22.027Z,2.30
2022-12-04T18:38:57.997Z,2.30
2022-12-04T18:41:24.938Z,2.30
2022-12-04T18:43:52.135Z,2.30
2022-12-04T18:46:19.605Z,2.30
2022-12-04T18:48:48.359Z,2.30
2022-12-04T18:51:28.100Z,2.30
2022-12-04T18:53:58.890Z,2.30
2022-12-04T18:56:26.222Z,2.30
2022-12-04T18:59:01.182Z,2.30
2022-12-04T19:01:29.117Z,2.30
2022-12-04T19:03:58.759Z,2.30
2022-12-04T19:06:43.349Z,2.30
2022-12-04T19:09:16.837Z,2.30
2022-12-04T19:11:44.676Z,2.30
2022-12-04T19:14:22.362Z,2.30
2022-12-04T19:16:51.000Z,2.30
2022-12-04T19:19:18.134Z,2.30
2022-12-04T19:21:45.240Z,2.20
2022-12-04T19:24:12.975Z,2.30
2022-12-04T19:26:40.048Z,2.30
2022-12-04T19:29:08.086Z,2.30
2022-12-04T19:31:37.668Z,2.30
2022-12-04T19:34:06.358Z,2.30
2022-12-04T19:36:34.809Z,2.30
2022-12-04T19:39:02.718Z,2.30
2022-12-04T19:41:33.699Z,2.30
2022-12-04T19:44:05.401Z,2.30
2022-12-04T19:46:41.992Z,2.40
2022-12-04T19:49:10.665Z,2.30
2022-12-04T19:51:39.757Z,2.40
2022-12-04T19:54:08.044Z,2.40
2022-12-04T19:56:35.869Z,2.40
2022-12-04T19:59:06.197Z,2.40
2022-12-04T20:01:35.057Z,2.40
2022-12-04T20:04:05.628Z,2.40
2022-12-04T20:06:51.277Z,2.40
2022-12-04T20:09:20.940Z,2.40
2022-12-04T20:11:48.417Z,2.40
2022-12-04T20:14:15.724Z,2.40
2022-12-04T20:16:43.097Z,2.40
2022-12-04T20:19:14.735Z,2.40
2022-12-04T20:21:45.666Z,2.40
2022-12-04T20:24:18.484Z,2.40
2022-12-04T20:26:46.301Z,2.40
2022-12-04T20:29:16.602Z,2.40
2022-12-04T20:31:45.873Z,2.40
2022-12-04T20:34:15.679Z,2.40
2022-12-04T20:36:44.425Z,2.40
2022-12-04T20:39:12.597Z,2.40
2022-12-04T20:41:40.640Z,2.40
2022-12-04T20:44:11.437Z,2.40
2022-12-04T20:46:39.967Z,2.40
2022-12-04T20:49:10.087Z,2.50
2022-12-04T20:51:39.812Z,2.50
2022-12-04T20:54:07.971Z,2.50
2022-12-04T20:56:37.749Z,2.50
2022-12-04T20:59:11.299Z,2.50
2022-12-04T21:01:38.518Z,2.50
2022-12-04T21:04:07.858Z,2.50
2022-12-04T21:06:38.019Z,2.50
2022-12-04T21:09:13.001Z,2.50
2022-12-04T21:11:42.855Z,2.60
2022-12-04T21:14:38.898Z,2.50
2022-12-04T21:17:07.879Z,2.50
2022-12-04T21:19:35.038Z,2.60
2022-12-04T21:22:02.645Z,2.60
2022-12-04T21:24:32.557Z,2.60
2022-12-04T21:27:02.510Z,2.60
2022-12-04T21:29:31.422Z,2.60
2022-12-04T21:31:58.320Z,2.60
2022-12-04T21:34:25.515Z,2.60
2022-12-04T21:36:52.473Z,2.60
2022-12-04T21:39:21.823Z,2.60
2022-12-04T21:42:08.192Z,2.60
2022-12-04T21:44:38.062Z,2.60
2022-12-04T21:47:05.447Z,2.70
2022-12-04T21:49:32.444Z,2.60
2022-12-04T21:51:59.603Z,2.60
2022-12-04T21:54:29.838Z,2.60
2022-12-04T21:56:57.888Z,2.60
2022-12-04T21:59:25.797Z,2.70
2022-12-04T22:01:54.721Z,2.60
2022-12-04T22:04:22.614Z,2.60
2022-12-04T22:06:49.813Z,2.60
2022-12-04T22:09:17.480Z,2.70
2022-12-04T22:11:46.137Z,2.70
2022-12-04T22:14:13.568Z,2.70
2022-12-04T22:16:42.660Z,2.70
2022-12-04T22:19:11.666Z,2.70
2022-12-04T22:21:39.512Z,2.70
2022-12-04T22:24:07.390Z,2.70
2022-12-04T22:26:34.358Z,2.70
2022-12-04T22:29:26.753Z,2.70
2022-12-04T22:31:51.025Z,2.70
2022-12-04T22:34:18.552Z,2.60
2022-12-04T22:36:45.603Z,2.70
2022-12-04T22:39:12.587Z,2.60
2022-12-04T22:41:40.844Z,2.70
2022-12-04T22:44:07.863Z,2.70
2022-12-04T22:46:35.966Z,2.70
2022-12-04T22:49:05.241Z,2.70
2022-12-04T22:51:32.166Z,2.70
2022-12-04T22:53:59.219Z,2.70
2022-12-04T22:56:30.373Z,2.60
2022-12-04T22:59:00.451Z,2.70
2022-12-04T23:01:30.132Z,2.70
2022-12-04T23:03:59.190Z,2.70
2022-12-04T23:06:29.575Z,2.70
2022-12-04T23:09:05.712Z,2.70
2022-12-04T23:11:32.723Z,2.70
2022-12-04T23:14:03.153Z,2.70
2022-12-04T23:16:32.832Z,2.70
2022-12-04T23:18:59.942Z,2.70
2022-12-04T23:21:27.830Z,2.70
2022-12-04T23:23:55.785Z,2.80
2022-12-04T23:26:29.883Z,2.80
2022-12-04T23:28:57.206Z,2.70
2022-12-04T23:31:24.579Z,2.80
2022-12-04T23:33:51.577Z,2.70
2022-12-04T23:36:18.560Z,2.70
2022-12-04T23:38:45.728Z,2.70
2022-12-04T23:41:18.712Z,2.70
2022-12-04T23:43:46.504Z,2.80
2022-12-04T23:46:16.096Z,2.80
2022-12-04T23:48:44.758Z,2.80
2022-12-04T23:51:13.765Z,2.80
2022-12-04T23:53:40.995Z,2.80
2022-12-04T23:56:18.669Z,2.80
2022-12-04T23:58:48.930Z,2.80
